createdAt,value
2019-05-17T04:39:23.702Z,13.50
2019-05-17T04:41:54.764Z,13.60
2019-05-17T04:44:24.405Z,13.80
2019-05-17T04:46:54.835Z,14.00
2019-05-17T04:49:24.242Z,14.10
2019-05-17T04:51:54.055Z,14.20
2019-05-17T04:54:26.082Z,14.30
2019-05-17T04:56:56.161Z,14.50
2019-05-17T04:59:25.702Z,14.60
2019-05-17T05:01:55.687Z,14.80
2019-05-17T05:04:24.943Z,14.90
2019-05-17T05:06:55.744Z,15.10
2019-05-17T05:09:26.229Z,15.20
2019-05-17T05:12:01.443Z,15.20
2019-05-17T05:14:26.991Z,15.40
2019-05-17T05:16:57.440Z,15.50
2019-05-17T05:19:28.128Z,15.70
2019-05-17T05:21:57.054Z,15.80
2019-05-17T05:24:26.459Z,15.90
2019-05-17T05:26:56.050Z,16.10
2019-05-17T05:29:26.277Z,16.30
2019-05-17T05:31:55.025Z,16.50
2019-05-17T05:34:24.509Z,16.60
2019-05-17T05:36:53.785Z,16.70
2019-05-17T05:39:23.434Z,16.90
2019-05-17T05:42:06.124Z,17.00
2019-05-17T05:44:24.278Z,17.10
2019-05-17T05:46:53.036Z,17.20
2019-05-17T05:49:23.257Z,17.30
2019-05-17T05:51:52.398Z,17.40
2019-05-17T05:54:24.323Z,17.50
2019-05-17T05:56:53.046Z,17.70
2019-05-17T05:59:22.425Z,17.80
2019-05-17T06:01:52.526Z,17.90
2019-05-17T06:04:22.337Z,18.20
2019-05-17T06:06:52.216Z,18.40
2019-05-17T06:09:22.355Z,18.50
2019-05-17T06:11:51.950Z,18.70
2019-05-17T06:14:21.644Z,18.80
2019-05-17T06:16:52.034Z,19.00
2019-05-17T06:19:22.397Z,19.00
2019-05-17T06:21:52.011Z,19.20
2019-05-17T06:24:22.533Z,19.20
2019-05-17T06:26:52.527Z,19.20
2019-05-17T06:29:22.164Z,19.20
2019-05-17T06:31:56.327Z,19.40
2019-05-17T06:34:25.514Z,19.50
2019-05-17T06:36:54.921Z,19.70
2019-05-17T06:39:23.711Z,19.80
2019-05-17T06:41:53.211Z,19.90
2019-05-17T06:44:22.435Z,19.90
2019-05-17T06:46:52.023Z,20.00
2019-05-17T06:49:22.459Z,20.10
2019-05-17T06:51:51.956Z,20.10
2019-05-17T06:54:21.574Z,20.20
2019-05-17T06:56:52.569Z,20.30
2019-05-17T06:59:21.201Z,20.40
2019-05-17T07:01:50.357Z,20.40
2019-05-17T07:04:21.154Z,20.50
2019-05-17T07:07:10.823Z,20.60
2019-05-17T07:09:40.186Z,20.70
2019-05-17T07:12:10.498Z,20.90
2019-05-17T07:14:41.001Z,21.00
2019-05-17T07:17:10.222Z,21.10
2019-05-17T07:19:40.507Z,21.20
2019-05-17T07:22:09.878Z,21.30
2019-05-17T07:24:39.968Z,21.30
2019-05-17T07:27:10.900Z,21.20
2019-05-17T07:29:40.428Z,21.20
2019-05-17T07:32:09.833Z,21.10
2019-05-17T07:34:40.202Z,21.10
2019-05-17T07:37:10.479Z,21.10
2019-05-17T07:39:42.162Z,21.20
2019-05-17T07:42:09.941Z,21.20
2019-05-17T07:44:40.273Z,21.20
2019-05-17T07:47:09.759Z,21.30
2019-05-17T07:49:40.494Z,21.40
2019-05-17T07:52:10.322Z,21.50
2019-05-17T07:54:39.908Z,21.70
2019-05-17T07:57:10.391Z,21.80
2019-05-17T07:59:39.718Z,21.90
2019-05-17T08:02:10.654Z,22.10
2019-05-17T08:04:40.682Z,22.20
2019-05-17T08:07:10.833Z,22.30
2019-05-17T08:09:42.034Z,22.50
2019-05-17T08:12:12.089Z,22.50
2019-05-17T08:14:42.266Z,22.70
2019-05-17T08:17:12.403Z,22.90
2019-05-17T08:19:41.456Z,23.10
2019-05-17T08:22:10.427Z,23.20
2019-05-17T08:24:39.969Z,23.20
2019-05-17T08:27:10.364Z,23.50
2019-05-17T08:29:40.992Z,23.70
2019-05-17T08:32:09.873Z,24.10
2019-05-17T08:34:40.094Z,24.10
2019-05-17T08:37:09.490Z,24.10
2019-05-17T08:39:39.991Z,24.10
2019-05-17T08:42:09.806Z,24.00
2019-05-17T08:44:39.400Z,23.80
2019-05-17T08:47:10.066Z,23.70
2019-05-17T08:49:40.411Z,23.90
2019-05-17T08:52:09.906Z,23.90
2019-05-17T08:54:42.728Z,24.00
2019-05-17T08:57:22.217Z,24.00
2019-05-17T08:59:50.926Z,24.10
2019-05-17T09:02:20.048Z,24.30
2019-05-17T09:04:50.542Z,24.60
2019-05-17T09:07:20.436Z,25.00
2019-05-17T09:09:50.126Z,25.10
2019-05-17T09:12:20.657Z,24.80
2019-05-17T09:14:50.247Z,24.70
2019-05-17T09:17:19.587Z,24.70
2019-05-17T09:19:50.485Z,25.10
2019-05-17T09:22:19.802Z,25.50
2019-05-17T09:24:50.107Z,25.80
2019-05-17T09:27:19.816Z,26.10
2019-05-17T09:29:49.832Z,26.20
2019-05-17T09:32:20.167Z,25.90
2019-05-17T09:34:49.863Z,25.80
2019-05-17T09:37:22.355Z,25.60
2019-05-17T09:39:49.431Z,25.50
2019-05-17T09:42:20.793Z,25.20
2019-05-17T09:44:49.656Z,25.20
2019-05-17T09:47:20.633Z,25.20
2019-05-17T09:49:51.297Z,25.40
2019-05-17T09:52:22.142Z,25.40
2019-05-17T09:54:51.034Z,25.50
2019-05-17T09:57:20.469Z,25.90
2019-05-17T09:59:49.666Z,26.00
2019-05-17T10:02:20.520Z,26.10
2019-05-17T10:04:50.276Z,25.90
2019-05-17T10:07:20.816Z,26.00
2019-05-17T10:09:52.048Z,26.00
2019-05-17T10:12:21.739Z,26.20
2019-05-17T10:14:53.162Z,26.30
2019-05-17T10:17:22.096Z,26.30
2019-05-17T10:19:51.103Z,26.40
2019-05-17T10:22:21.844Z,26.70
2019-05-17T10:24:50.483Z,27.40
2019-05-17T10:27:19.662Z,27.90
2019-05-17T10:29:50.078Z,28.50
2019-05-17T10:32:20.700Z,29.10
2019-05-17T10:34:49.607Z,29.50
2019-05-17T10:37:20.381Z,30.20
2019-05-17T10:39:50.478Z,30.70
2019-05-17T10:42:21.006Z,30.80
2019-05-17T10:44:54.243Z,30.70
2019-05-17T10:47:21.535Z,30.70
2019-05-17T10:49:50.365Z,30.20
2019-05-17T10:52:20.334Z,29.60
2019-05-17T10:54:49.562Z,28.80
2019-05-17T10:57:20.206Z,28.00
2019-05-17T10:59:50.046Z,27.20
2019-05-17T11:02:19.743Z,26.70
2019-05-17T11:04:50.587Z,26.40
2019-05-17T11:07:20.482Z,26.30
2019-05-17T11:09:52.170Z,26.40
2019-05-17T11:12:21.481Z,26.50
2019-05-17T11:15:09.392Z,26.60
2019-05-17T11:17:21.503Z,26.40
2019-05-17T11:20:02.223Z,26.20
2019-05-17T11:22:31.135Z,26.10
2019-05-17T11:25:02.595Z,26.10
2019-05-17T11:27:31.507Z,26.50
2019-05-17T11:30:00.278Z,27.20
2019-05-17T11:32:30.542Z,27.80
2019-05-17T11:34:59.350Z,28.50
2019-05-17T11:37:28.157Z,28.00
2019-05-17T11:39:56.880Z,27.20
2019-05-17T11:42:25.673Z,26.90
2019-05-17T11:44:56.336Z,27.50
2019-05-17T11:47:24.794Z,28.50
2019-05-17T11:50:30.515Z,29.60
2019-05-17T11:53:21.652Z,30.10
2019-05-17T11:56:04.041Z,29.80
2019-05-17T11:58:35.386Z,29.00
2019-05-17T12:04:01.143Z,28.50
2019-05-17T12:06:31.028Z,28.20
2019-05-17T12:12:03.761Z,27.80
2019-05-17T12:14:32.592Z,28.10
2019-05-17T12:17:01.381Z,28.70
2019-05-17T12:19:30.299Z,29.30
2019-05-17T12:22:00.955Z,29.20
2019-05-17T12:24:31.089Z,28.70
2019-05-17T12:26:59.972Z,27.90
2019-05-17T12:29:28.807Z,27.30
2019-05-17T12:31:59.259Z,26.80
2019-05-17T12:34:28.034Z,26.20
2019-05-17T12:36:56.881Z,25.50
2019-05-17T12:40:01.128Z,25.10
2019-05-17T12:42:30.361Z,24.80
2019-05-17T12:45:18.634Z,24.70
2019-05-17T12:47:57.207Z,24.50
2019-05-17T12:53:43.459Z,24.00
2019-05-17T12:56:12.654Z,23.80
2019-05-17T12:58:41.805Z,23.80
2019-05-17T13:01:11.638Z,23.70
2019-05-17T13:03:42.500Z,23.60
2019-05-17T13:06:11.492Z,23.50
2019-05-17T13:08:40.524Z,23.20
2019-05-17T13:11:10.159Z,23.00
2019-05-17T13:13:41.329Z,22.90
2019-05-17T13:16:17.949Z,22.80
2019-05-17T13:18:42.335Z,22.70
2019-05-17T13:21:12.270Z,22.60
2019-05-17T13:23:44.914Z,22.50
2019-05-17T13:26:17.507Z,22.50
2019-05-17T13:28:46.631Z,22.30
2019-05-17T13:31:16.516Z,22.30
2019-05-17T13:33:47.296Z,22.20
2019-05-17T13:36:17.220Z,22.20
2019-05-17T13:38:48.505Z,22.20
2019-05-17T13:41:17.330Z,22.10
2019-05-17T13:43:47.275Z,22.10
2019-05-17T13:46:16.124Z,22.20
2019-05-17T13:48:46.249Z,22.30
2019-05-17T13:51:15.524Z,22.40
2019-05-17T13:53:45.436Z,22.30
2019-05-17T13:56:15.296Z,22.30
2019-05-17T13:58:44.085Z,22.30
2019-05-17T14:01:13.024Z,22.30
2019-05-17T14:03:43.788Z,22.30
2019-05-17T14:06:14.647Z,22.20
2019-05-17T14:08:43.456Z,22.20
2019-05-17T14:11:13.822Z,22.20
2019-05-17T14:13:42.606Z,22.20
2019-05-17T14:16:12.447Z,22.20
2019-05-17T14:18:41.626Z,22.30
2019-05-17T14:21:11.517Z,22.50
2019-05-17T14:23:41.282Z,22.80
2019-05-17T14:26:11.704Z,23.10
2019-05-17T14:28:45.502Z,23.40
2019-05-17T14:31:14.688Z,23.70
2019-05-17T14:33:45.190Z,23.80
2019-05-17T14:36:14.114Z,23.90
2019-05-17T14:38:43.023Z,23.90
2019-05-17T14:41:13.305Z,23.90
2019-05-17T14:43:43.236Z,23.60
2019-05-17T14:46:12.449Z,23.50
2019-05-17T14:48:43.268Z,23.40
2019-05-17T14:51:12.499Z,23.50
2019-05-17T14:53:43.287Z,23.50
2019-05-17T14:56:13.724Z,23.50
2019-05-17T14:58:42.766Z,23.60
2019-05-17T15:01:17.417Z,23.70
2019-05-17T15:03:51.328Z,23.80
2019-05-17T15:06:55.973Z,23.70
2019-05-17T15:09:25.342Z,23.30
2019-05-17T15:11:55.361Z,23.00
2019-05-17T15:14:24.785Z,22.80
2019-05-17T15:16:53.688Z,22.70
2019-05-17T15:22:53.877Z,22.60
2019-05-17T15:25:25.255Z,22.60
2019-05-17T15:27:54.092Z,22.60
2019-05-17T15:30:23.213Z,22.60
2019-05-17T15:32:52.528Z,22.60
2019-05-17T15:35:22.657Z,22.70
2019-05-17T15:37:51.360Z,22.70
2019-05-17T15:40:20.097Z,22.80
2019-05-17T15:42:50.628Z,22.90
2019-05-17T15:45:21.129Z,22.90
2019-05-17T15:47:49.973Z,23.20
2019-05-17T15:50:20.312Z,24.20
2019-05-17T15:52:51.632Z,25.90
2019-05-17T15:55:20.921Z,28.00
2019-05-17T15:57:49.820Z,29.90
2019-05-17T16:00:19.079Z,31.50
2019-05-17T16:02:48.063Z,32.70
2019-05-17T16:05:17.443Z,33.70
2019-05-17T16:07:46.551Z,34.00
2019-05-17T16:10:16.413Z,34.70
2019-05-17T16:13:00.939Z,35.40
2019-05-17T16:15:18.600Z,35.40
2019-05-17T16:17:48.959Z,34.90
2019-05-17T16:20:19.194Z,34.20
2019-05-17T16:22:52.891Z,34.20
2019-05-17T16:25:21.944Z,34.10
2019-05-17T16:27:53.588Z,34.00
2019-05-17T16:30:22.582Z,34.00
2019-05-17T16:32:51.686Z,34.40
2019-05-17T16:35:20.983Z,34.20
2019-05-17T16:37:50.415Z,34.10
2019-05-17T16:40:22.147Z,34.20
2019-05-17T16:42:51.184Z,34.50
2019-05-17T16:45:21.797Z,34.60
2019-05-17T16:47:51.276Z,34.20
2019-05-17T16:50:42.593Z,33.60
2019-05-17T16:53:12.884Z,33.10
2019-05-17T16:55:50.922Z,32.60
2019-05-17T16:58:16.930Z,32.20
2019-05-17T17:00:49.809Z,32.20
2019-05-17T17:03:23.697Z,31.80
2019-05-17T17:05:58.122Z,31.70
2019-05-17T17:08:49.374Z,31.60
2019-05-17T17:11:17.292Z,31.30
2019-05-17T17:13:58.940Z,30.90
2019-05-17T17:16:48.884Z,30.50
2019-05-17T17:19:26.875Z,30.00
2019-05-17T17:21:52.889Z,29.50
2019-05-17T17:24:24.547Z,29.00
2019-05-17T17:26:54.088Z,28.50
2019-05-17T17:29:25.405Z,28.40
2019-05-17T17:31:55.002Z,28.40
2019-05-17T17:34:27.601Z,28.30
2019-05-17T17:36:59.549Z,27.90
2019-05-17T17:39:31.277Z,27.40
2019-05-17T17:42:00.331Z,27.00
2019-05-17T17:44:29.303Z,26.30
2019-05-17T17:46:59.414Z,25.70
2019-05-17T17:49:28.760Z,25.10
2019-05-17T17:55:24.865Z,24.10
2019-05-17T17:57:54.043Z,23.50
2019-05-17T18:00:23.528Z,23.10
2019-05-17T18:02:55.086Z,22.70
2019-05-17T18:05:25.209Z,22.40
2019-05-17T18:07:54.109Z,21.90
2019-05-17T18:10:31.722Z,21.60
2019-05-17T18:13:19.389Z,21.30
2019-05-17T18:15:52.584Z,21.10
2019-05-17T18:18:25.841Z,20.80
2019-05-17T18:23:52.191Z,20.40
2019-05-17T18:26:23.012Z,20.20
2019-05-17T18:28:52.314Z,20.00
2019-05-17T18:31:21.248Z,19.80
2019-05-17T18:40:07.526Z,19.30
2019-05-17T18:42:33.889Z,19.10
2019-05-17T18:45:02.848Z,19.00
2019-05-17T18:47:31.888Z,18.90
2019-05-17T18:51:13.544Z,18.90
2019-05-17T18:52:41.549Z,18.70
2019-05-17T18:55:16.746Z,18.60
2019-05-17T18:57:46.186Z,18.50
2019-05-17T19:00:19.461Z,18.30
2019-05-17T19:02:48.405Z,18.20
2019-05-17T19:05:17.685Z,18.20
2019-05-17T19:07:47.272Z,18.10
2019-05-17T19:10:16.619Z,18.00
2019-05-17T19:12:46.327Z,17.90
2019-05-17T19:15:15.569Z,17.90
2019-05-17T19:17:44.942Z,17.80
2019-05-17T19:20:14.314Z,17.70
2019-05-17T19:22:43.635Z,17.70
2019-05-17T19:25:12.991Z,17.60
2019-05-17T19:27:41.931Z,17.60
2019-05-17T19:30:13.124Z,17.60
2019-05-17T19:32:47.620Z,17.50
2019-05-17T19:35:16.921Z,17.50
2019-05-17T19:37:46.344Z,17.40
2019-05-17T19:40:16.291Z,17.40
2019-05-17T19:42:46.089Z,17.40
2019-05-17T19:45:16.944Z,17.40
2019-05-17T19:47:46.339Z,17.30
2019-05-17T19:50:18.051Z,17.20
2019-05-17T19:52:47.829Z,17.20
2019-05-17T19:55:17.853Z,17.20
2019-05-17T19:57:55.146Z,17.20
2019-05-17T20:00:24.319Z,17.20
2019-05-17T20:05:27.312Z,17.10
2019-05-17T20:07:56.880Z,17.10
2019-05-17T20:10:27.229Z,17.10
2019-05-17T20:12:58.228Z,17.00
2019-05-17T20:15:34.570Z,17.00
2019-05-17T20:18:05.433Z,17.00
2019-05-17T20:20:37.829Z,17.00
